createdAt,value
2017-07-11T00:00:14.531Z,999.4
2017-07-11T00:00:55.011Z,999.4
2017-07-11T00:01:35.461Z,999.43
2017-07-11T00:02:16.003Z,999.38
2017-07-11T00:02:56.472Z,999.45
2017-07-11T00:03:36.975Z,999.44
2017-07-11T00:04:17.493Z,999.45
2017-07-11T00:04:57.994Z,999.45
2017-07-11T00:05:38.517Z,999.39
2017-07-11T00:06:18.990Z,999.42
2017-07-11T00:06:59.504Z,999.41
2017-07-11T00:07:40.049Z,999.45
2017-07-11T00:08:20.553Z,999.41
2017-07-11T00:09:01.027Z,999.38
2017-07-11T00:09:41.549Z,999.46
2017-07-11T00:10:22.015Z,999.4
2017-07-11T00:11:02.537Z,999.48
2017-07-11T00:11:42.988Z,999.43
2017-07-11T00:12:23.553Z,999.44
2017-07-11T00:13:04.063Z,999.48
2017-07-11T00:13:44.535Z,999.45
2017-07-11T00:14:25.020Z,999.48
2017-07-11T00:15:05.493Z,999.52
2017-07-11T00:15:46.002Z,999.48
2017-07-11T00:16:26.482Z,999.52
2017-07-11T00:17:06.988Z,999.51
2017-07-11T00:17:47.472Z,999.57
2017-07-11T00:18:28.004Z,999.52
2017-07-11T00:19:08.525Z,999.6
2017-07-11T00:19:49.035Z,999.57
2017-07-11T00:20:30.454Z,999.57
2017-07-11T00:21:10.921Z,999.52
2017-07-11T00:21:51.415Z,999.55
2017-07-11T00:22:31.941Z,999.58
2017-07-11T00:23:12.401Z,999.58
2017-07-11T00:23:52.932Z,999.61
2017-07-11T00:24:33.404Z,999.62
2017-07-11T00:25:15.573Z,999.57
2017-07-11T00:26:00.596Z,999.62
2017-07-11T00:26:41.088Z,999.66
2017-07-11T00:27:21.611Z,999.69
2017-07-11T00:28:02.096Z,999.7
2017-07-11T00:28:42.564Z,999.71
2017-07-11T00:29:23.057Z,999.73
2017-07-11T00:30:03.546Z,999.72
2017-07-11T00:30:44.039Z,999.75
2017-07-11T00:31:24.583Z,999.76
2017-07-11T00:32:05.049Z,999.79
2017-07-11T00:32:45.604Z,999.77
2017-07-11T00:33:26.075Z,999.82
2017-07-11T00:34:06.575Z,999.85
2017-07-11T00:34:47.091Z,999.84
2017-07-11T00:35:27.528Z,999.81
2017-07-11T00:36:08.030Z,999.82
2017-07-11T00:36:48.542Z,999.83
2017-07-11T00:37:29.149Z,999.84
2017-07-11T00:38:09.605Z,999.86
2017-07-11T00:38:50.156Z,999.84
2017-07-11T00:39:30.651Z,999.83
2017-07-11T00:40:11.188Z,999.74
2017-07-11T00:40:51.668Z,999.87
2017-07-11T00:41:32.158Z,999.77
2017-07-11T00:42:12.653Z,999.72
2017-07-11T00:42:53.144Z,999.72
2017-07-11T00:43:33.602Z,999.72
2017-07-11T00:44:14.100Z,999.77
2017-07-11T00:44:54.582Z,999.81
2017-07-11T00:45:35.126Z,999.82
2017-07-11T00:46:15.644Z,999.79
2017-07-11T00:46:56.173Z,999.79
2017-07-11T00:47:36.728Z,999.78
2017-07-11T00:48:17.234Z,999.8
2017-07-11T00:48:57.699Z,999.81
2017-07-11T00:49:38.190Z,999.8
2017-07-11T00:50:18.683Z,999.85
2017-07-11T00:50:59.214Z,999.84
2017-07-11T00:51:39.734Z,999.89
2017-07-11T00:52:20.277Z,999.86
2017-07-11T00:53:00.767Z,999.82
2017-07-11T00:53:41.265Z,999.87
2017-07-11T00:54:21.732Z,999.87
2017-07-11T00:55:02.260Z,999.88
2017-07-11T00:55:42.688Z,999.83
2017-07-11T00:56:23.262Z,999.85
2017-07-11T00:57:03.741Z,999.83
2017-07-11T00:57:44.218Z,999.83
2017-07-11T00:58:24.730Z,999.84
2017-07-11T01:00:22.931Z,999.79
2017-07-11T01:02:36.209Z,999.75
2017-07-11T01:03:16.698Z,999.8
2017-07-11T01:03:57.213Z,999.79
2017-07-11T01:04:37.716Z,999.76
2017-07-11T01:05:18.207Z,999.8
2017-07-11T01:05:58.719Z,999.76
2017-07-11T01:06:39.231Z,999.78
2017-07-11T01:07:19.742Z,999.73
2017-07-11T01:08:00.260Z,999.75
2017-07-11T01:08:40.785Z,999.72
2017-07-11T01:09:21.305Z,999.72
2017-07-11T01:10:01.828Z,999.73
2017-07-11T01:10:42.329Z,999.71
2017-07-11T01:11:22.846Z,999.75
2017-07-11T01:12:03.368Z,999.73
2017-07-11T01:12:43.879Z,999.7
2017-07-11T01:13:24.388Z,999.68
2017-07-11T01:14:04.879Z,999.7
2017-07-11T01:14:45.431Z,999.71
2017-07-11T01:15:25.905Z,999.71
2017-07-11T01:16:06.421Z,999.73
2017-07-11T01:16:46.929Z,999.73
2017-07-11T01:17:27.474Z,999.72
2017-07-11T01:18:07.950Z,999.71
2017-07-11T01:18:48.460Z,999.76
2017-07-11T01:19:28.978Z,999.75
2017-07-11T01:20:09.499Z,999.74
2017-07-11T01:22:02.623Z,999.73
2017-07-11T01:22:43.149Z,999.74
2017-07-11T01:23:23.699Z,999.76
2017-07-11T01:24:04.185Z,999.73
2017-07-11T01:24:44.817Z,999.76
2017-07-11T01:25:25.305Z,999.72
2017-07-11T01:26:05.812Z,999.67
2017-07-11T01:26:46.305Z,999.73
2017-07-11T01:27:26.943Z,999.69
2017-07-11T01:28:07.515Z,999.7
2017-07-11T01:28:47.979Z,999.74
2017-07-11T01:29:28.507Z,999.69
2017-07-11T01:30:08.981Z,999.67
2017-07-11T01:30:49.487Z,999.66
2017-07-11T01:31:29.994Z,999.66
2017-07-11T01:32:10.487Z,999.69
2017-07-11T01:32:51.028Z,999.65
2017-07-11T01:33:31.511Z,999.68
2017-07-11T01:34:12.036Z,999.7
2017-07-11T01:34:52.523Z,999.66
2017-07-11T01:35:33.032Z,999.67
2017-07-11T01:36:13.547Z,999.67
2017-07-11T01:36:54.031Z,999.7
2017-07-11T01:37:34.554Z,999.69
2017-07-11T01:38:15.046Z,999.7
2017-07-11T01:38:55.572Z,999.68
2017-07-11T01:39:36.059Z,999.69
2017-07-11T01:40:16.559Z,999.71
2017-07-11T01:40:57.556Z,999.72
2017-07-11T01:41:38.441Z,999.7
2017-07-11T01:42:18.949Z,999.68
2017-07-11T01:42:59.443Z,999.65
2017-07-11T01:43:39.939Z,999.7
2017-07-11T01:44:20.464Z,999.67
2017-07-11T01:45:00.966Z,999.68
2017-07-11T01:45:41.489Z,999.69
2017-07-11T01:46:21.993Z,999.58
2017-07-11T01:47:02.513Z,999.63
2017-07-11T01:47:43.063Z,999.62
2017-07-11T01:48:23.544Z,999.66
2017-07-11T01:49:04.043Z,999.62
2017-07-11T01:49:44.560Z,999.61
2017-07-11T01:50:25.075Z,999.56
2017-07-11T01:51:05.596Z,999.6
2017-07-11T01:51:46.075Z,999.56
2017-07-11T01:52:26.617Z,999.57
2017-07-11T01:53:07.107Z,999.66
2017-07-11T01:53:47.611Z,999.61
2017-07-11T01:54:28.134Z,999.59
2017-07-11T01:55:08.606Z,999.62
2017-07-11T01:55:49.121Z,999.6
2017-07-11T01:56:29.637Z,999.65
2017-07-11T01:57:10.139Z,999.6
2017-07-11T01:57:50.656Z,999.61
2017-07-11T01:58:31.145Z,999.57
2017-07-11T01:59:11.640Z,999.62
2017-07-11T01:59:52.135Z,999.58
2017-07-11T02:00:32.653Z,999.61
2017-07-11T02:01:13.216Z,999.6
2017-07-11T02:01:53.785Z,999.6
2017-07-11T02:02:34.245Z,999.63
2017-07-11T02:03:14.773Z,999.63
2017-07-11T02:03:55.246Z,999.61
2017-07-11T02:04:35.755Z,999.53
2017-07-11T02:05:16.256Z,999.55
2017-07-11T02:05:56.769Z,999.58
2017-07-11T02:06:37.254Z,999.55
2017-07-11T02:07:17.802Z,999.61
2017-07-11T02:07:58.253Z,999.56
2017-07-11T02:08:38.785Z,999.55
2017-07-11T02:09:19.288Z,999.53
2017-07-11T02:09:59.755Z,999.57
2017-07-11T02:10:40.276Z,999.57
2017-07-11T02:11:20.770Z,999.55
2017-07-11T02:12:01.316Z,999.56
2017-07-11T02:12:41.831Z,999.56
2017-07-11T02:13:22.308Z,999.62
2017-07-11T02:14:02.831Z,999.62
2017-07-11T02:14:43.315Z,999.71
2017-07-11T02:15:23.824Z,999.65
2017-07-11T02:16:04.331Z,999.67
2017-07-11T02:16:44.828Z,999.73
2017-07-11T02:17:25.376Z,999.74
2017-07-11T02:18:05.841Z,999.7
2017-07-11T02:18:46.360Z,999.71
2017-07-11T02:19:26.863Z,999.74
2017-07-11T02:20:07.390Z,999.75
2017-07-11T02:20:47.898Z,999.73
2017-07-11T02:21:28.435Z,999.78
2017-07-11T02:22:08.916Z,999.81
2017-07-11T02:22:49.488Z,999.76
2017-07-11T02:23:29.993Z,999.8
2017-07-11T02:24:10.483Z,999.84
2017-07-11T02:24:51.019Z,999.88
2017-07-11T02:25:31.519Z,999.85
2017-07-11T02:26:12.041Z,999.85
2017-07-11T02:26:52.518Z,999.89
2017-07-11T02:27:33.035Z,999.87
2017-07-11T02:28:13.545Z,999.86
2017-07-11T02:28:54.061Z,999.86
2017-07-11T02:29:34.578Z,999.89
2017-07-11T02:30:15.118Z,999.91
2017-07-11T02:30:55.627Z,999.9
2017-07-11T02:31:36.137Z,999.91
2017-07-11T02:32:16.651Z,999.9
2017-07-11T02:32:57.168Z,999.88
2017-07-11T02:33:37.685Z,999.91
2017-07-11T02:34:18.226Z,999.9
2017-07-11T02:34:58.716Z,999.9
2017-07-11T02:35:39.247Z,999.86
2017-07-11T02:36:19.753Z,999.9
2017-07-11T02:37:00.276Z,999.9
2017-07-11T02:37:40.795Z,999.86
2017-07-11T02:38:21.331Z,999.87
2017-07-11T02:39:01.827Z,999.89
2017-07-11T02:39:42.352Z,999.87
2017-07-11T02:40:22.835Z,999.94
2017-07-11T02:41:03.340Z,999.91
2017-07-11T02:41:43.861Z,999.94
2017-07-11T02:42:24.364Z,999.9
2017-07-11T02:43:04.889Z,999.91
2017-07-11T02:43:45.394Z,999.89
2017-07-11T02:44:25.912Z,999.92
2017-07-11T02:45:06.400Z,999.94
2017-07-11T02:45:46.910Z,999.91
2017-07-11T02:46:27.438Z,999.91
2017-07-11T02:47:07.945Z,999.88
2017-07-11T02:47:48.456Z,999.93
2017-07-11T02:48:28.987Z,999.93
2017-07-11T02:49:09.503Z,999.92
2017-07-11T02:49:50.018Z,999.94
2017-07-11T02:50:30.536Z,999.92
2017-07-11T02:51:11.049Z,999.94
2017-07-11T02:51:51.575Z,999.98
2017-07-11T02:52:32.085Z,999.99
2017-07-11T02:53:12.582Z,999.92
2017-07-11T02:53:53.097Z,999.98
2017-07-11T02:54:33.601Z,1000.01
2017-07-11T02:55:14.120Z,999.98
2017-07-11T02:55:54.604Z,999.97
2017-07-11T02:56:35.149Z,999.97
2017-07-11T02:57:15.668Z,999.97
2017-07-11T02:57:56.197Z,999.99
2017-07-11T02:58:36.713Z,1000.01
2017-07-11T02:59:17.190Z,1000
2017-07-11T02:59:57.681Z,1000.05
2017-07-11T03:00:38.213Z,1000.03
2017-07-11T03:01:18.699Z,1000
2017-07-11T03:01:59.189Z,1000.07
2017-07-11T03:02:39.705Z,1000.03
2017-07-11T03:03:20.190Z,1000.02
2017-07-11T03:04:00.660Z,999.97
2017-07-11T03:04:41.160Z,1000.02
2017-07-11T03:05:21.677Z,1000.07
2017-07-11T03:06:02.190Z,1000.01
2017-07-11T03:06:42.692Z,1000.02
2017-07-11T03:07:23.206Z,1000.04
2017-07-11T03:08:03.724Z,1000.04
2017-07-11T03:08:44.263Z,999.99
2017-07-11T03:09:24.768Z,1000.05
2017-07-11T03:10:05.276Z,1000
2017-07-11T03:10:45.802Z,1000.02
2017-07-11T03:11:26.329Z,1000.09
2017-07-11T03:12:06.834Z,1000.04
2017-07-11T03:12:47.342Z,1000.04
2017-07-11T03:13:27.875Z,1000.06
2017-07-11T03:14:08.348Z,1000.02
2017-07-11T03:14:48.861Z,999.99
2017-07-11T03:15:29.410Z,1000.04
2017-07-11T03:16:10.036Z,1000.07
2017-07-11T03:16:50.523Z,1000.07
2017-07-11T03:17:31.009Z,1000.05
2017-07-11T03:18:11.527Z,1000.03
2017-07-11T03:18:52.081Z,1000.04
2017-07-11T03:19:32.601Z,1000.05
2017-07-11T03:20:13.169Z,1000.09
2017-07-11T03:20:53.682Z,1000.09
2017-07-11T03:21:34.182Z,1000.1
2017-07-11T03:22:14.662Z,1000.1
2017-07-11T03:22:55.178Z,1000.05
2017-07-11T03:23:35.684Z,1000.1
2017-07-11T03:24:16.213Z,1000.1
2017-07-11T03:24:56.735Z,1000.09
2017-07-11T03:25:37.299Z,1000.12
2017-07-11T03:26:17.807Z,1000.13
2017-07-11T03:26:58.290Z,1000.12
2017-07-11T03:27:38.803Z,1000.12
2017-07-11T03:28:19.303Z,1000.1
2017-07-11T03:28:59.838Z,1000.1
2017-07-11T03:29:40.319Z,1000.14
2017-07-11T03:30:20.824Z,1000.09
2017-07-11T03:31:01.323Z,1000.15
2017-07-11T03:33:20.230Z,1000.17
2017-07-11T03:34:00.760Z,1000.18
2017-07-11T03:34:41.267Z,1000.15
2017-07-11T03:35:21.776Z,1000.15
2017-07-11T03:36:02.296Z,1000.16
2017-07-11T03:36:42.827Z,1000.18
2017-07-11T03:37:23.350Z,1000.21
2017-07-11T03:38:03.862Z,1000.13
2017-07-11T03:38:44.377Z,1000.17
2017-07-11T03:39:24.887Z,1000.23
2017-07-11T03:40:05.408Z,1000.19
2017-07-11T03:40:45.936Z,1000.17
2017-07-11T03:41:26.443Z,1000.17
2017-07-11T03:42:06.959Z,1000.19
2017-07-11T03:42:47.477Z,1000.21
2017-07-11T03:43:28.060Z,1000.17
2017-07-11T03:44:08.483Z,1000.21
2017-07-11T03:44:48.989Z,1000.21
2017-07-11T03:45:29.497Z,1000.11
2017-07-11T03:46:10.016Z,1000.12
2017-07-11T03:46:50.514Z,1000.15
2017-07-11T03:47:31.025Z,1000.16
2017-07-11T03:48:11.536Z,1000.17
2017-07-11T03:48:52.049Z,1000.19
2017-07-11T03:49:32.541Z,1000.15
2017-07-11T03:50:13.051Z,1000.21
2017-07-11T03:50:53.610Z,1000.23
2017-07-11T03:51:34.121Z,1000.23
2017-07-11T03:52:14.624Z,1000.27
2017-07-11T03:52:55.139Z,1000.26
2017-07-11T03:53:35.670Z,1000.24
2017-07-11T03:54:16.159Z,1000.32
2017-07-11T03:54:56.690Z,1000.29
2017-07-11T03:55:37.209Z,1000.28
2017-07-11T03:56:17.722Z,1000.3
2017-07-11T03:56:58.236Z,1000.3
2017-07-11T03:57:38.758Z,1000.3
2017-07-11T03:58:19.274Z,1000.28
2017-07-11T03:58:59.789Z,1000.33
2017-07-11T03:59:40.301Z,1000.35
2017-07-11T04:00:20.817Z,1000.34
2017-07-11T04:01:01.369Z,1000.34
2017-07-11T04:01:41.837Z,1000.32
2017-07-11T04:02:22.340Z,1000.3
2017-07-11T04:03:02.851Z,1000.27
2017-07-11T04:03:43.333Z,1000.26
2017-07-11T04:04:23.831Z,1000.34
2017-07-11T04:05:04.335Z,1000.33
2017-07-11T04:05:44.832Z,1000.3
2017-07-11T04:06:25.330Z,1000.32
2017-07-11T04:07:05.836Z,1000.33
2017-07-11T04:07:46.367Z,1000.35
2017-07-11T04:08:26.878Z,1000.34
2017-07-11T04:09:07.403Z,1000.42
2017-07-11T04:09:47.915Z,1000.38
2017-07-11T04:10:28.420Z,1000.39
2017-07-11T04:11:08.977Z,1000.39
2017-07-11T04:11:49.495Z,1000.38
2017-07-11T04:12:30.016Z,1000.41
2017-07-11T04:13:10.531Z,1000.4
2017-07-11T04:13:51.050Z,1000.43
2017-07-11T04:14:31.562Z,1000.39
2017-07-11T04:15:12.073Z,1000.42
2017-07-11T04:15:52.597Z,1000.42
2017-07-11T04:16:33.107Z,1000.45
2017-07-11T04:17:13.640Z,1000.39
2017-07-11T04:17:54.132Z,1000.43
2017-07-11T04:18:34.649Z,1000.39
2017-07-11T04:19:15.188Z,1000.41
2017-07-11T04:19:55.679Z,1000.39
2017-07-11T04:20:36.197Z,1000.4
2017-07-11T04:21:16.712Z,1000.42
2017-07-11T04:21:57.222Z,1000.46
2017-07-11T04:22:37.731Z,1000.41
2017-07-11T04:23:18.225Z,1000.38
2017-07-11T04:23:58.775Z,1000.39
2017-07-11T04:24:39.261Z,1000.39
2017-07-11T04:25:19.790Z,1000.39
2017-07-11T04:26:00.303Z,1000.36
2017-07-11T04:26:40.822Z,1000.38
2017-07-11T04:27:21.331Z,1000.42
2017-07-11T04:28:01.852Z,1000.38
2017-07-11T04:28:42.373Z,1000.4
2017-07-11T04:29:22.897Z,1000.42
2017-07-11T04:30:03.482Z,1000.45
2017-07-11T04:30:43.919Z,1000.44
2017-07-11T04:31:24.431Z,1000.45
2017-07-11T04:32:04.960Z,1000.46
2017-07-11T04:32:45.498Z,1000.44
2017-07-11T04:33:26.012Z,1000.44
2017-07-11T04:34:06.542Z,1000.5
2017-07-11T04:34:47.050Z,1000.5
2017-07-11T04:35:27.571Z,1000.53
2017-07-11T04:36:08.087Z,1000.52
2017-07-11T04:36:48.608Z,1000.54
2017-07-11T04:37:29.117Z,1000.54
2017-07-11T04:38:09.648Z,1000.58
2017-07-11T04:38:50.131Z,1000.54
2017-07-11T04:39:30.649Z,1000.56
2017-07-11T04:40:11.156Z,1000.63
2017-07-11T04:40:51.668Z,1000.62
2017-07-11T04:41:32.158Z,1000.61
2017-07-11T04:42:12.669Z,1000.66
2017-07-11T04:42:53.182Z,1000.63
2017-07-11T04:43:33.653Z,1000.69
2017-07-11T04:44:14.147Z,1000.67
2017-07-11T04:44:54.684Z,1000.73
2017-07-11T04:45:35.153Z,1000.71
2017-07-11T04:46:15.657Z,1000.76
2017-07-11T04:46:56.185Z,1000.74
2017-07-11T04:47:36.686Z,1000.78
2017-07-11T04:48:17.157Z,1000.77
2017-07-11T04:48:57.670Z,1000.79
2017-07-11T04:49:38.105Z,1000.79
2017-07-11T04:50:18.642Z,1000.78
2017-07-11T04:50:59.134Z,1000.81
2017-07-11T04:51:39.687Z,1000.76
2017-07-11T04:52:20.201Z,1000.78
2017-07-11T04:53:00.712Z,1000.8
2017-07-11T04:53:41.231Z,1000.78
2017-07-11T04:54:21.754Z,1000.77
2017-07-11T04:55:02.253Z,1000.77
2017-07-11T04:55:42.758Z,1000.76
2017-07-11T04:56:23.295Z,1000.74
2017-07-11T04:57:03.718Z,1000.79
2017-07-11T04:57:44.243Z,1000.81
2017-07-11T04:58:24.732Z,1000.75
2017-07-11T04:59:05.216Z,1000.8
2017-07-11T04:59:45.690Z,1000.8
2017-07-11T05:00:26.202Z,1000.79
2017-07-11T05:01:06.717Z,1000.8
2017-07-11T05:01:47.207Z,1000.8
2017-07-11T05:02:27.732Z,1000.82
2017-07-11T05:03:08.243Z,1000.83
2017-07-11T05:03:48.733Z,1000.83
2017-07-11T05:04:29.271Z,1000.86
2017-07-11T05:05:09.769Z,1000.83
2017-07-11T05:05:50.287Z,1000.83
2017-07-11T05:06:30.797Z,1000.8
2017-07-11T05:07:11.333Z,1000.83
2017-07-11T05:07:51.882Z,1000.85
2017-07-11T05:08:32.392Z,1000.88
2017-07-11T05:09:12.919Z,1000.88
2017-07-11T05:09:53.446Z,1000.83
2017-07-11T05:10:33.912Z,1000.86
2017-07-11T05:11:14.435Z,1000.87
2017-07-11T05:11:54.960Z,1000.92
2017-07-11T05:12:35.483Z,1000.89
2017-07-11T05:13:15.990Z,1000.88
2017-07-11T05:13:56.521Z,1000.92
2017-07-11T05:14:37.044Z,1000.92
2017-07-11T05:15:17.590Z,1000.91
2017-07-11T05:15:58.041Z,1000.92
2017-07-11T05:16:38.549Z,1000.9
2017-07-11T05:17:19.044Z,1000.96
2017-07-11T05:17:59.567Z,1000.93
2017-07-11T05:18:40.028Z,1000.93
2017-07-11T05:19:20.523Z,1000.92
2017-07-11T05:20:01.022Z,1000.93
2017-07-11T05:20:41.524Z,1000.86
2017-07-11T05:21:22.117Z,1000.9
2017-07-11T05:22:02.605Z,1000.95
2017-07-11T05:22:43.145Z,1000.93
2017-07-11T05:23:23.752Z,1000.94
2017-07-11T05:24:04.292Z,1000.97
2017-07-11T05:24:44.801Z,1000.95
2017-07-11T05:25:25.354Z,1000.9
2017-07-11T05:26:05.837Z,1000.92
2017-07-11T05:26:46.348Z,1000.96
2017-07-11T05:27:26.912Z,1000.98
2017-07-11T05:28:07.460Z,1000.95
2017-07-11T05:28:47.960Z,1000.98
2017-07-11T05:29:28.503Z,1000.95
2017-07-11T05:30:08.992Z,1001
2017-07-11T05:30:49.523Z,1000.96
2017-07-11T05:31:30.052Z,1000.99
2017-07-11T05:32:10.572Z,1001.03
2017-07-11T05:32:51.100Z,1001.03
2017-07-11T05:33:31.636Z,1001.06
2017-07-11T05:34:12.161Z,1001.03
2017-07-11T05:34:52.797Z,1001.07
2017-07-11T05:35:33.305Z,1001.11
2017-07-11T05:36:13.782Z,1001.14
2017-07-11T05:36:54.311Z,1001.13
2017-07-11T05:37:34.814Z,1001.1
2017-07-11T05:38:15.353Z,1001.14
2017-07-11T05:38:55.877Z,1001.16
2017-07-11T05:39:38.219Z,1001.23
2017-07-11T05:40:18.712Z,1001.26
2017-07-11T05:41:00.638Z,1001.19
2017-07-11T05:41:41.118Z,1001.15
2017-07-11T05:42:21.645Z,1001.22
2017-07-11T05:43:02.159Z,1001.2
2017-07-11T05:43:42.698Z,1001.23
2017-07-11T05:44:23.923Z,1001.17
2017-07-11T05:45:05.134Z,1001.25
2017-07-11T05:45:46.208Z,1001.28
2017-07-11T05:46:26.741Z,1001.31
2017-07-11T05:47:07.557Z,1001.28
2017-07-11T05:47:48.345Z,1001.29
2017-07-11T05:48:29.025Z,1001.29
2017-07-11T05:49:09.549Z,1001.3
2017-07-11T05:49:50.033Z,1001.28
2017-07-11T05:50:30.558Z,1001.3
2017-07-11T05:51:11.112Z,1001.27
2017-07-11T05:51:51.636Z,1001.33
2017-07-11T05:52:32.140Z,1001.28
2017-07-11T05:53:12.678Z,1001.31
2017-07-11T05:53:53.166Z,1001.31
2017-07-11T05:54:33.676Z,1001.28
2017-07-11T05:55:14.203Z,1001.25
2017-07-11T05:55:54.702Z,1001.23
2017-07-11T05:56:35.234Z,1001.25
2017-07-11T05:57:15.728Z,1001.23
2017-07-11T05:57:56.207Z,1001.23
2017-07-11T05:58:36.673Z,1001.22
2017-07-11T05:59:17.198Z,1001.24
2017-07-11T05:59:57.706Z,1001.24
2017-07-11T06:00:38.200Z,1001.25
2017-07-11T06:01:18.683Z,1001.29
2017-07-11T06:01:59.205Z,1001.28
2017-07-11T06:02:39.714Z,1001.27
2017-07-11T06:03:20.203Z,1001.27
2017-07-11T06:04:00.708Z,1001.27
2017-07-11T06:04:41.234Z,1001.3
2017-07-11T06:05:21.742Z,1001.24
2017-07-11T06:06:02.251Z,1001.24
2017-07-11T06:06:42.792Z,1001.28
2017-07-11T06:07:23.246Z,1001.26
2017-07-11T06:08:03.792Z,1001.28
2017-07-11T06:08:44.308Z,1001.28
2017-07-11T06:09:24.839Z,1001.25
2017-07-11T06:10:05.367Z,1001.24
2017-07-11T06:10:45.844Z,1001.26
2017-07-11T06:11:26.383Z,1001.32
2017-07-11T06:12:06.880Z,1001.33
2017-07-11T06:12:47.381Z,1001.29
2017-07-11T06:13:27.889Z,1001.31
2017-07-11T06:14:08.399Z,1001.26
2017-07-11T06:14:51.455Z,1001.3
2017-07-11T06:15:32.005Z,1001.27
2017-07-11T06:16:12.492Z,1001.23
2017-07-11T06:16:52.999Z,1001.24
2017-07-11T06:17:33.554Z,1001.28
2017-07-11T06:18:14.061Z,1001.28
2017-07-11T06:18:54.564Z,1001.3
2017-07-11T06:19:35.044Z,1001.31
2017-07-11T06:20:15.596Z,1001.29
2017-07-11T06:20:56.088Z,1001.32
2017-07-11T06:21:36.589Z,1001.36
2017-07-11T06:22:17.142Z,1001.3
2017-07-11T06:22:57.621Z,1001.33
2017-07-11T06:23:38.114Z,1001.32
2017-07-11T06:24:18.620Z,1001.35
2017-07-11T06:24:59.101Z,1001.32
2017-07-11T06:25:39.640Z,1001.38
2017-07-11T06:26:20.103Z,1001.35
2017-07-11T06:27:00.613Z,1001.33
2017-07-11T06:27:41.126Z,1001.37
2017-07-11T06:28:21.666Z,1001.42
2017-07-11T06:29:02.165Z,1001.41
2017-07-11T06:29:42.626Z,1001.41
2017-07-11T06:30:23.189Z,1001.39
2017-07-11T06:31:03.656Z,1001.41
2017-07-11T06:31:44.190Z,1001.42
2017-07-11T06:32:24.663Z,1001.43
2017-07-11T06:33:05.165Z,1001.43
2017-07-11T06:33:45.641Z,1001.43
2017-07-11T06:34:26.165Z,1001.41
2017-07-11T06:35:06.695Z,1001.44
2017-07-11T06:35:47.184Z,1001.39
2017-07-11T06:36:27.670Z,1001.48
2017-07-11T06:37:08.190Z,1001.45
2017-07-11T06:37:48.654Z,1001.43
2017-07-11T06:38:29.155Z,1001.42
2017-07-11T06:39:09.641Z,1001.43
2017-07-11T06:39:50.152Z,1001.42
2017-07-11T06:40:30.680Z,1001.45
2017-07-11T06:41:11.214Z,1001.42
2017-07-11T06:41:51.748Z,1001.4
2017-07-11T06:42:32.220Z,1001.42
2017-07-11T06:43:12.750Z,1001.38
2017-07-11T06:43:53.252Z,1001.48
2017-07-11T06:44:33.790Z,1001.47
2017-07-11T06:45:14.319Z,1001.5
2017-07-11T06:45:54.838Z,1001.4
2017-07-11T06:46:35.336Z,1001.42
2017-07-11T06:47:15.846Z,1001.44
2017-07-11T06:47:56.441Z,1001.48
2017-07-11T06:48:36.960Z,1001.54
2017-07-11T06:49:17.463Z,1001.54
2017-07-11T06:49:58.048Z,1001.56
2017-07-11T06:50:38.503Z,1001.57
2017-07-11T06:51:19.019Z,1001.58
2017-07-11T06:51:59.539Z,1001.59
2017-07-11T06:52:40.056Z,1001.64
2017-07-11T06:53:20.585Z,1001.6
2017-07-11T06:54:01.091Z,1001.64
2017-07-11T06:54:41.636Z,1001.67
2017-07-11T06:55:22.151Z,1001.65
2017-07-11T06:56:02.658Z,1001.66
2017-07-11T06:56:43.172Z,1001.66
2017-07-11T06:57:23.685Z,1001.69
2017-07-11T06:58:04.218Z,1001.65
2017-07-11T06:58:44.755Z,1001.73
2017-07-11T06:59:25.270Z,1001.74
2017-07-11T07:00:05.800Z,1001.72
2017-07-11T07:00:46.302Z,1001.74
2017-07-11T07:01:26.824Z,1001.72
2017-07-11T07:02:07.365Z,1001.73
2017-07-11T07:02:47.810Z,1001.79
2017-07-11T07:03:28.360Z,1001.79
2017-07-11T07:04:08.843Z,1001.82
2017-07-11T07:04:49.353Z,1001.83
2017-07-11T07:05:29.912Z,1001.89
2017-07-11T07:06:10.409Z,1001.91
2017-07-11T07:06:50.928Z,1001.86
2017-07-11T07:07:31.443Z,1001.85
2017-07-11T07:08:11.956Z,1001.9
2017-07-11T07:08:52.544Z,1001.84
2017-07-11T07:09:33.072Z,1001.89
2017-07-11T07:10:13.560Z,1001.9
2017-07-11T07:10:54.102Z,1001.84
2017-07-11T07:11:34.615Z,1001.84
2017-07-11T07:12:15.143Z,1001.86
2017-07-11T07:12:55.636Z,1001.82
2017-07-11T07:13:36.159Z,1001.83
2017-07-11T07:14:16.670Z,1001.79
2017-07-11T07:14:57.164Z,1001.77
2017-07-11T07:15:37.717Z,1001.77
2017-07-11T07:16:18.213Z,1001.79
2017-07-11T07:16:58.688Z,1001.82
2017-07-11T07:17:39.200Z,1001.81
2017-07-11T07:18:19.680Z,1001.82
2017-07-11T07:19:00.167Z,1001.87
2017-07-11T07:19:40.698Z,1001.84
2017-07-11T07:20:21.174Z,1001.9
2017-07-11T07:21:01.663Z,1001.89
2017-07-11T07:21:42.203Z,1001.87
2017-07-11T07:22:22.690Z,1001.9
2017-07-11T07:23:03.307Z,1001.84
2017-07-11T07:23:43.827Z,1001.88
2017-07-11T07:24:24.350Z,1001.88
2017-07-11T07:25:04.851Z,1001.94
2017-07-11T07:25:45.350Z,1001.91
2017-07-11T07:26:25.856Z,1001.98
2017-07-11T07:27:06.387Z,1001.93
2017-07-11T07:27:46.881Z,1001.99
2017-07-11T07:28:27.376Z,1001.99
2017-07-11T07:29:07.953Z,1001.99
2017-07-11T07:29:48.414Z,1001.99
2017-07-11T07:30:28.920Z,1001.98
2017-07-11T07:31:09.504Z,1002.02
2017-07-11T07:31:50.038Z,1001.97
2017-07-11T07:32:30.553Z,1001.98
2017-07-11T07:33:11.061Z,1002.03
2017-07-11T07:33:51.630Z,1002.01
2017-07-11T07:34:32.089Z,1002
2017-07-11T07:35:12.583Z,1002.02
2017-07-11T07:35:53.084Z,1001.99
2017-07-11T07:36:33.698Z,1002.03
2017-07-11T07:37:14.219Z,1001.99
2017-07-11T07:37:54.736Z,1001.97
2017-07-11T07:38:35.233Z,1002.03
2017-07-11T07:39:15.784Z,1001.99
2017-07-11T07:39:56.250Z,1001.97
2017-07-11T07:40:36.798Z,1001.95
2017-07-11T07:41:17.270Z,1001.96
2017-07-11T07:41:57.778Z,1001.97
2017-07-11T07:42:38.289Z,1001.96
2017-07-11T07:43:18.780Z,1001.99
2017-07-11T07:43:59.283Z,1001.99
2017-07-11T07:44:39.787Z,1002
2017-07-11T07:45:20.319Z,1001.9
2017-07-11T07:46:00.816Z,1001.97
2017-07-11T07:46:41.307Z,1001.95
2017-07-11T07:47:21.820Z,1001.93
2017-07-11T07:48:02.288Z,1001.89
2017-07-11T07:48:42.839Z,1001.89
2017-07-11T07:49:23.300Z,1001.94
2017-07-11T07:50:03.840Z,1001.93
2017-07-11T07:50:44.331Z,1001.94
2017-07-11T07:51:24.810Z,1001.91
2017-07-11T07:52:05.327Z,1001.95
2017-07-11T07:52:45.868Z,1001.92
2017-07-11T07:53:26.338Z,1001.97
2017-07-11T07:54:06.852Z,1001.95
2017-07-11T07:54:47.365Z,1001.99
2017-07-11T07:55:27.856Z,1002
2017-07-11T07:56:08.389Z,1002
2017-07-11T07:56:48.880Z,1001.99
2017-07-11T07:57:29.428Z,1001.98
2017-07-11T07:58:09.910Z,1001.96
2017-07-11T07:58:50.390Z,1001.99
2017-07-11T07:59:30.896Z,1001.96
2017-07-11T08:00:11.635Z,1001.98
2017-07-11T08:00:52.157Z,1001.97
2017-07-11T08:01:32.622Z,1001.96
2017-07-11T08:02:13.088Z,1002
2017-07-11T08:02:53.640Z,1001.97
2017-07-11T08:03:34.133Z,1001.96
2017-07-11T08:04:14.635Z,1001.98
2017-07-11T08:04:55.165Z,1001.98
2017-07-11T08:05:35.670Z,1001.96
2017-07-11T08:06:16.211Z,1001.95
2017-07-11T08:06:56.679Z,1001.96
2017-07-11T08:07:37.180Z,1001.92
2017-07-11T08:08:17.690Z,1001.89
2017-07-11T08:08:58.225Z,1001.92
2017-07-11T08:09:38.711Z,1001.96
2017-07-11T08:10:19.222Z,1001.94
2017-07-11T08:10:59.809Z,1001.91
2017-07-11T08:11:40.237Z,1001.95
2017-07-11T08:12:20.750Z,1001.99
2017-07-11T08:13:01.224Z,1001.95
2017-07-11T08:13:41.765Z,1001.98
2017-07-11T08:14:22.256Z,1002.03
2017-07-11T08:15:02.738Z,1002
2017-07-11T08:15:43.236Z,1001.96
2017-07-11T08:16:23.718Z,1002
2017-07-11T08:17:04.220Z,1002.04
2017-07-11T08:17:44.776Z,1002.03
2017-07-11T08:18:25.255Z,1001.99
2017-07-11T08:19:05.786Z,1001.99
2017-07-11T08:19:46.264Z,1002.04
2017-07-11T08:20:26.751Z,1002
2017-07-11T08:21:07.241Z,1002.05
2017-07-11T08:21:47.775Z,1002.08
2017-07-11T08:22:28.285Z,1002.07
2017-07-11T08:23:08.799Z,1002.02